sensor_id;sensor_type;location;lat;lon;timestamp;temperature;humidity
39665;DHT22;26679;50.872;4.332;2023-08-06T00:00:24;15.60;99.90
39665;DHT22;26679;50.872;4.332;2023-08-06T00:02:50;15.60;99.90
39665;DHT22;26679;50.872;4.332;2023-08-06T00:05:16;15.60;99.90
39665;DHT22;26679;50.872;4.332;2023-08-06T00:07:49;15.60;99.90
39665;DHT22;26679;50.872;4.332;2023-08-06T00:10:15;15.70;99.90
39665;DHT22;26679;50.872;4.332;2023-08-06T00:12:41;15.80;99.90
39665;DHT22;26679;50.872;4.332;2023-08-06T00:15:06;15.70;99.90
39665;DHT22;26679;50.872;4.332;2023-08-06T00:17:33;15.70;99.90
39665;DHT22;26679;50.872;4.332;2023-08-06T00:19:58;15.70;99.90
39665;DHT22;26679;50.872;4.332;2023-08-06T00:22:29;15.70;99.90
39665;DHT22;26679;50.872;4.332;2023-08-06T00:24:55;15.70;99.90
39665;DHT22;26679;50.872;4.332;2023-08-06T00:27:22;15.70;99.90
39665;DHT22;26679;50.872;4.332;2023-08-06T00:29:48;15.60;99.90
39665;DHT22;26679;50.872;4.332;2023-08-06T00:32:13;15.70;99.90
39665;DHT22;26679;50.872;4.332;2023-08-06T00:34:39;15.70;99.90
39665;DHT22;26679;50.872;4.332;2023-08-06T00:37:05;15.70;99.90
39665;DHT22;26679;50.872;4.332;2023-08-06T00:39:30;15.70;99.90
39665;DHT22;26679;50.872;4.332;2023-08-06T00:41:56;15.70;99.90
39665;DHT22;26679;50.872;4.332;2023-08-06T00:44:21;15.80;99.90
39665;DHT22;26679;50.872;4.332;2023-08-06T00:46:47;15.90;99.90
39665;DHT22;26679;50.872;4.332;2023-08-06T00:49:12;15.80;99.90
39665;DHT22;26679;50.872;4.332;2023-08-06T00:51:38;15.90;99.90
39665;DHT22;26679;50.872;4.332;2023-08-06T00:54:03;15.90;99.90
39665;DHT22;26679;50.872;4.332;2023-08-06T00:56:29;15.80;99.90
39665;DHT22;26679;50.872;4.332;2023-08-06T00:58:55;15.70;99.90
39665;DHT22;26679;50.872;4.332;2023-08-06T01:01:20;15.70;99.90
39665;DHT22;26679;50.872;4.332;2023-08-06T01:03:46;15.70;99.90
39665;DHT22;26679;50.872;4.332;2023-08-06T01:06:11;15.70;99.90
39665;DHT22;26679;50.872;4.332;2023-08-06T01:13:47;15.80;99.90
39665;DHT22;26679;50.872;4.332;2023-08-06T01:16:17;15.80;99.90
39665;DHT22;26679;50.872;4.332;2023-08-06T01:18:43;15.80;99.90
39665;DHT22;26679;50.872;4.332;2023-08-06T01:21:14;15.70;99.90
39665;DHT22;26679;50.872;4.332;2023-08-06T01:23:40;15.80;99.90
39665;DHT22;26679;50.872;4.332;2023-08-06T01:26:27;15.80;99.90
39665;DHT22;26679;50.872;4.332;2023-08-06T01:28:59;15.80;99.90
39665;DHT22;26679;50.872;4.332;2023-08-06T01:31:30;15.80;99.90
39665;DHT22;26679;50.872;4.332;2023-08-06T01:33:56;15.80;99.90
39665;DHT22;26679;50.872;4.332;2023-08-06T01:36:23;15.70;99.90
39665;DHT22;26679;50.872;4.332;2023-08-06T01:38:50;15.70;99.90
39665;DHT22;26679;50.872;4.332;2023-08-06T01:41:16;15.80;99.90
39665;DHT22;26679;50.872;4.332;2023-08-06T01:43:41;15.80;99.90
39665;DHT22;26679;50.872;4.332;2023-08-06T01:46:07;15.90;99.90
39665;DHT22;26679;50.872;4.332;2023-08-06T01:48:33;15.90;99.90
39665;DHT22;26679;50.872;4.332;2023-08-06T01:50:58;15.80;99.90
39665;DHT22;26679;50.872;4.332;2023-08-06T01:53:24;15.80;99.90
39665;DHT22;26679;50.872;4.332;2023-08-06T01:55:50;15.80;99.90
39665;DHT22;26679;50.872;4.332;2023-08-06T01:58:15;15.90;99.90
39665;DHT22;26679;50.872;4.332;2023-08-06T02:00:41;15.90;99.90
39665;DHT22;26679;50.872;4.332;2023-08-06T02:15:57;15.50;99.90
39665;DHT22;26679;50.872;4.332;2023-08-06T02:18:23;15.50;99.90
39665;DHT22;26679;50.872;4.332;2023-08-06T02:20:56;15.50;99.90
39665;DHT22;26679;50.872;4.332;2023-08-06T02:23:22;15.40;99.90
39665;DHT22;26679;50.872;4.332;2023-08-06T02:25:48;15.40;99.90
39665;DHT22;26679;50.872;4.332;2023-08-06T02:28:14;15.40;99.90
39665;DHT22;26679;50.872;4.332;2023-08-06T02:30:39;15.50;99.90
39665;DHT22;26679;50.872;4.332;2023-08-06T02:33:05;15.40;99.90
39665;DHT22;26679;50.872;4.332;2023-08-06T02:35:31;15.40;99.90
39665;DHT22;26679;50.872;4.332;2023-08-06T02:37:57;15.40;99.90
39665;DHT22;26679;50.872;4.332;2023-08-06T02:40:22;14.80;99.90
39665;DHT22;26679;50.872;4.332;2023-08-06T02:42:48;15.40;99.90
39665;DHT22;26679;50.872;4.332;2023-08-06T02:45:14;15.40;99.90
39665;DHT22;26679;50.872;4.332;2023-08-06T02:47:39;15.40;99.90
39665;DHT22;26679;50.872;4.332;2023-08-06T02:50:05;15.40;99.90
39665;DHT22;26679;50.872;4.332;2023-08-06T02:52:31;15.50;99.90
39665;DHT22;26679;50.872;4.332;2023-08-06T02:54:57;15.50;99.90
39665;DHT22;26679;50.872;4.332;2023-08-06T02:57:25;15.50;99.90
39665;DHT22;26679;50.872;4.332;2023-08-06T02:59:51;15.50;99.90
39665;DHT22;26679;50.872;4.332;2023-08-06T03:02:17;15.50;99.90
39665;DHT22;26679;50.872;4.332;2023-08-06T03:04:42;15.40;99.90
39665;DHT22;26679;50.872;4.332;2023-08-06T03:07:08;15.30;99.90
39665;DHT22;26679;50.872;4.332;2023-08-06T03:09:34;15.50;99.90
39665;DHT22;26679;50.872;4.332;2023-08-06T03:12:00;15.50;99.90
39665;DHT22;26679;50.872;4.332;2023-08-06T03:14:25;15.50;99.90
39665;DHT22;26679;50.872;4.332;2023-08-06T03:16:51;15.50;99.90
39665;DHT22;26679;50.872;4.332;2023-08-06T03:19:17;15.50;99.90
39665;DHT22;26679;50.872;4.332;2023-08-06T03:21:43;15.60;99.90
39665;DHT22;26679;50.872;4.332;2023-08-06T03:24:08;14.80;99.90
39665;DHT22;26679;50.872;4.332;2023-08-06T03:26:34;15.60;99.90
39665;DHT22;26679;50.872;4.332;2023-08-06T03:29:00;15.70;99.90
39665;DHT22;26679;50.872;4.332;2023-08-06T03:31:25;15.80;99.90
39665;DHT22;26679;50.872;4.332;2023-08-06T03:33:51;15.80;99.90
39665;DHT22;26679;50.872;4.332;2023-08-06T03:36:20;15.80;99.90
39665;DHT22;26679;50.872;4.332;2023-08-06T03:38:45;15.80;99.90
39665;DHT22;26679;50.872;4.332;2023-08-06T03:41:11;15.80;99.90
39665;DHT22;26679;50.872;4.332;2023-08-06T03:43:37;15.80;99.90
39665;DHT22;26679;50.872;4.332;2023-08-06T03:46:03;15.70;99.90
39665;DHT22;26679;50.872;4.332;2023-08-06T03:48:28;15.70;99.90
39665;DHT22;26679;50.872;4.332;2023-08-06T03:50:54;15.60;99.90
39665;DHT22;26679;50.872;4.332;2023-08-06T03:53:20;15.60;99.90
39665;DHT22;26679;50.872;4.332;2023-08-06T03:55:46;15.60;99.90
39665;DHT22;26679;50.872;4.332;2023-08-06T03:58:11;15.70;99.90
39665;DHT22;26679;50.872;4.332;2023-08-06T04:00:37;15.50;99.90
39665;DHT22;26679;50.872;4.332;2023-08-06T04:03:04;15.40;99.90
39665;DHT22;26679;50.872;4.332;2023-08-06T04:05:33;15.20;99.90
39665;DHT22;26679;50.872;4.332;2023-08-06T04:07:58;15.20;99.90
39665;DHT22;26679;50.872;4.332;2023-08-06T04:10:25;15.10;99.90
39665;DHT22;26679;50.872;4.332;2023-08-06T04:12:50;15.00;99.90
39665;DHT22;26679;50.872;4.332;2023-08-06T04:15:16;14.90;99.90
39665;DHT22;26679;50.872;4.332;2023-08-06T04:17:42;14.90;99.90
39665;DHT22;26679;50.872;4.332;2023-08-06T04:20:07;14.90;99.90
39665;DHT22;26679;50.872;4.332;2023-08-06T04:22:33;14.90;99.90
39665;DHT22;26679;50.872;4.332;2023-08-06T04:24:59;14.80;99.90
39665;DHT22;26679;50.872;4.332;2023-08-06T04:27:25;14.80;99.90
39665;DHT22;26679;50.872;4.332;2023-08-06T04:29:50;14.80;99.90
39665;DHT22;26679;50.872;4.332;2023-08-06T04:32:17;14.70;99.90
39665;DHT22;26679;50.872;4.332;2023-08-06T04:34:45;14.70;99.90
39665;DHT22;26679;50.872;4.332;2023-08-06T04:37:12;14.80;99.90
39665;DHT22;26679;50.872;4.332;2023-08-06T04:49:57;14.60;99.90
39665;DHT22;26679;50.872;4.332;2023-08-06T04:52:23;14.50;99.90
39665;DHT22;26679;50.872;4.332;2023-08-06T04:54:52;14.60;99.90
39665;DHT22;26679;50.872;4.332;2023-08-06T04:57:18;14.60;99.90
39665;DHT22;26679;50.872;4.332;2023-08-06T04:59:44;14.60;99.90
39665;DHT22;26679;50.872;4.332;2023-08-06T05:02:09;14.60;99.90
39665;DHT22;26679;50.872;4.332;2023-08-06T05:04:35;14.50;99.90
39665;DHT22;26679;50.872;4.332;2023-08-06T05:07:01;14.50;99.90
39665;DHT22;26679;50.872;4.332;2023-08-06T05:09:26;14.50;99.90
39665;DHT22;26679;50.872;4.332;2023-08-06T05:11:56;14.50;99.90
39665;DHT22;26679;50.872;4.332;2023-08-06T05:14:21;14.60;99.90
39665;DHT22;26679;50.872;4.332;2023-08-06T05:16:47;14.60;99.90
39665;DHT22;26679;50.872;4.332;2023-08-06T05:19:13;14.70;99.90
39665;DHT22;26679;50.872;4.332;2023-08-06T05:21:39;14.70;99.90
39665;DHT22;26679;50.872;4.332;2023-08-06T05:24:05;14.60;99.90
39665;DHT22;26679;50.872;4.332;2023-08-06T05:26:30;14.60;99.90
39665;DHT22;26679;50.872;4.332;2023-08-06T05:28:56;14.70;99.90
39665;DHT22;26679;50.872;4.332;2023-08-06T05:31:22;14.60;99.90
39665;DHT22;26679;50.872;4.332;2023-08-06T05:33:47;14.70;99.90
39665;DHT22;26679;50.872;4.332;2023-08-06T05:36:13;14.70;99.90
39665;DHT22;26679;50.872;4.332;2023-08-06T05:38:39;14.70;99.90
39665;DHT22;26679;50.872;4.332;2023-08-06T05:41:04;14.80;99.90
39665;DHT22;26679;50.872;4.332;2023-08-06T05:43:30;14.90;99.90
39665;DHT22;26679;50.872;4.332;2023-08-06T05:45:56;14.80;99.90
39665;DHT22;26679;50.872;4.332;2023-08-06T05:48:23;14.80;99.90
39665;DHT22;26679;50.872;4.332;2023-08-06T05:50:50;14.80;99.90
39665;DHT22;26679;50.872;4.332;2023-08-06T05:53:16;14.90;99.90
39665;DHT22;26679;50.872;4.332;2023-08-06T05:55:41;14.90;99.90
39665;DHT22;26679;50.872;4.332;2023-08-06T05:58:07;14.90;99.90
39665;DHT22;26679;50.872;4.332;2023-08-06T06:00:33;14.90;99.90
39665;DHT22;26679;50.872;4.332;2023-08-06T06:03:00;15.00;99.90
39665;DHT22;26679;50.872;4.332;2023-08-06T06:05:25;15.00;99.90
39665;DHT22;26679;50.872;4.332;2023-08-06T06:07:51;15.10;99.90
39665;DHT22;26679;50.872;4.332;2023-08-06T06:10:17;15.20;99.90
39665;DHT22;26679;50.872;4.332;2023-08-06T06:12:42;15.10;99.90
39665;DHT22;26679;50.872;4.332;2023-08-06T06:15:08;15.10;99.90
39665;DHT22;26679;50.872;4.332;2023-08-06T06:17:34;15.00;99.90
39665;DHT22;26679;50.872;4.332;2023-08-06T06:19:59;15.00;99.90
39665;DHT22;26679;50.872;4.332;2023-08-06T06:22:25;15.00;99.90
39665;DHT22;26679;50.872;4.332;2023-08-06T06:24:51;15.00;99.90
39665;DHT22;26679;50.872;4.332;2023-08-06T06:27:17;15.00;99.90
39665;DHT22;26679;50.872;4.332;2023-08-06T06:29:43;15.10;99.90
39665;DHT22;26679;50.872;4.332;2023-08-06T06:32:12;15.10;99.90
39665;DHT22;26679;50.872;4.332;2023-08-06T06:34:39;15.30;99.90
39665;DHT22;26679;50.872;4.332;2023-08-06T06:37:04;15.30;99.90
39665;DHT22;26679;50.872;4.332;2023-08-06T06:39:30;15.50;99.90
39665;DHT22;26679;50.872;4.332;2023-08-06T06:41:57;15.50;99.90
39665;DHT22;26679;50.872;4.332;2023-08-06T06:44:23;15.50;99.90
39665;DHT22;26679;50.872;4.332;2023-08-06T06:46:48;15.40;99.90
39665;DHT22;26679;50.872;4.332;2023-08-06T06:49:14;15.40;99.90
39665;DHT22;26679;50.872;4.332;2023-08-06T06:51:40;15.40;99.90
39665;DHT22;26679;50.872;4.332;2023-08-06T06:54:06;15.30;99.90
39665;DHT22;26679;50.872;4.332;2023-08-06T06:56:34;15.20;99.90
39665;DHT22;26679;50.872;4.332;2023-08-06T06:59:00;15.20;99.90
39665;DHT22;26679;50.872;4.332;2023-08-06T07:01:28;15.10;99.90
39665;DHT22;26679;50.872;4.332;2023-08-06T07:03:53;14.90;99.90
39665;DHT22;26679;50.872;4.332;2023-08-06T07:06:19;14.80;99.90
39665;DHT22;26679;50.872;4.332;2023-08-06T07:08:45;14.70;99.90
39665;DHT22;26679;50.872;4.332;2023-08-06T07:11:14;14.80;99.90
39665;DHT22;26679;50.872;4.332;2023-08-06T07:13:57;14.80;99.90
39665;DHT22;26679;50.872;4.332;2023-08-06T07:16:23;15.00;99.90
39665;DHT22;26679;50.872;4.332;2023-08-06T07:18:53;15.00;99.90
39665;DHT22;26679;50.872;4.332;2023-08-06T07:21:20;15.10;99.90
39665;DHT22;26679;50.872;4.332;2023-08-06T07:23:46;15.10;99.90
39665;DHT22;26679;50.872;4.332;2023-08-06T07:26:11;15.20;99.90
39665;DHT22;26679;50.872;4.332;2023-08-06T07:28:37;15.10;99.90
39665;DHT22;26679;50.872;4.332;2023-08-06T07:31:03;15.10;99.90
39665;DHT22;26679;50.872;4.332;2023-08-06T07:33:29;15.00;99.90
39665;DHT22;26679;50.872;4.332;2023-08-06T07:38:30;15.10;99.90
39665;DHT22;26679;50.872;4.332;2023-08-06T07:40:56;15.20;99.90
39665;DHT22;26679;50.872;4.332;2023-08-06T07:48:31;15.70;99.90
39665;DHT22;26679;50.872;4.332;2023-08-06T07:50:56;15.70;99.90
39665;DHT22;26679;50.872;4.332;2023-08-06T07:53:23;15.70;99.90
39665;DHT22;26679;50.872;4.332;2023-08-06T07:58:24;16.00;99.90
39665;DHT22;26679;50.872;4.332;2023-08-06T08:00:52;17.10;99.90
39665;DHT22;26679;50.872;4.332;2023-08-06T08:03:17;16.00;99.90
39665;DHT22;26679;50.872;4.332;2023-08-06T08:39:27;15.20;99.90
39665;DHT22;26679;50.872;4.332;2023-08-06T08:42:00;13.70;99.90
39665;DHT22;26679;50.872;4.332;2023-08-06T08:57:18;15.60;99.90
39665;DHT22;26679;50.872;4.332;2023-08-06T08:59:44;15.60;99.90
39665;DHT22;26679;50.872;4.332;2023-08-06T09:02:11;15.80;99.90
39665;DHT22;26679;50.872;4.332;2023-08-06T09:04:38;15.90;99.90
39665;DHT22;26679;50.872;4.332;2023-08-06T09:09:39;15.90;99.90
39665;DHT22;26679;50.872;4.332;2023-08-06T09:12:11;15.90;99.90
39665;DHT22;26679;50.872;4.332;2023-08-06T09:14:37;16.00;99.90
39665;DHT22;26679;50.872;4.332;2023-08-06T09:17:03;15.90;99.90
39665;DHT22;26679;50.872;4.332;2023-08-06T09:19:29;15.90;99.90
39665;DHT22;26679;50.872;4.332;2023-08-06T09:21:55;15.80;99.90
39665;DHT22;26679;50.872;4.332;2023-08-06T09:24:21;15.70;99.90
39665;DHT22;26679;50.872;4.332;2023-08-06T09:26:47;15.70;99.90
39665;DHT22;26679;50.872;4.332;2023-08-06T09:29:13;15.60;99.90
39665;DHT22;26679;50.872;4.332;2023-08-06T09:31:43;15.50;99.90
39665;DHT22;26679;50.872;4.332;2023-08-06T09:34:16;15.40;99.90
39665;DHT22;26679;50.872;4.332;2023-08-06T09:36:42;15.30;99.90
39665;DHT22;26679;50.872;4.332;2023-08-06T09:39:14;15.20;99.90
39665;DHT22;26679;50.872;4.332;2023-08-06T09:41:41;15.10;99.90
39665;DHT22;26679;50.872;4.332;2023-08-06T09:44:17;15.00;99.90
39665;DHT22;26679;50.872;4.332;2023-08-06T09:46:53;15.00;99.90
39665;DHT22;26679;50.872;4.332;2023-08-06T09:49:19;15.00;99.90
39665;DHT22;26679;50.872;4.332;2023-08-06T09:51:45;15.10;99.90
39665;DHT22;26679;50.872;4.332;2023-08-06T09:54:14;15.00;99.90
39665;DHT22;26679;50.872;4.332;2023-08-06T09:56:40;15.00;99.90
39665;DHT22;26679;50.872;4.332;2023-08-06T09:59:07;15.10;99.90
39665;DHT22;26679;50.872;4.332;2023-08-06T10:07:10;15.10;99.90
39665;DHT22;26679;50.872;4.332;2023-08-06T10:09:36;15.10;99.90
39665;DHT22;26679;50.872;4.332;2023-08-06T10:12:02;15.40;99.90
39665;DHT22;26679;50.872;4.332;2023-08-06T10:14:30;15.50;99.90
39665;DHT22;26679;50.872;4.332;2023-08-06T10:16:58;15.80;99.90
39665;DHT22;26679;50.872;4.332;2023-08-06T10:19:25;15.90;99.90
39665;DHT22;26679;50.872;4.332;2023-08-06T10:22:11;15.80;99.90
39665;DHT22;26679;50.872;4.332;2023-08-06T10:24:58;15.80;99.90
39665;DHT22;26679;50.872;4.332;2023-08-06T10:32:56;15.70;99.90
39665;DHT22;26679;50.872;4.332;2023-08-06T10:35:31;15.60;99.90
39665;DHT22;26679;50.872;4.332;2023-08-06T10:43:08;15.10;99.90
39665;DHT22;26679;50.872;4.332;2023-08-06T10:45:50;14.90;99.90
39665;DHT22;26679;50.872;4.332;2023-08-06T10:48:32;14.70;99.90
39665;DHT22;26679;50.872;4.332;2023-08-06T10:51:15;13.20;99.90
39665;DHT22;26679;50.872;4.332;2023-08-06T10:53:45;14.80;99.90
39665;DHT22;26679;50.872;4.332;2023-08-06T10:56:14;14.80;99.90
39665;DHT22;26679;50.872;4.332;2023-08-06T10:58:40;15.00;99.90
39665;DHT22;26679;50.872;4.332;2023-08-06T11:01:05;15.00;99.90
39665;DHT22;26679;50.872;4.332;2023-08-06T11:06:40;15.20;99.90
39665;DHT22;26679;50.872;4.332;2023-08-06T11:08:59;15.30;99.90
39665;DHT22;26679;50.872;4.332;2023-08-06T11:11:28;15.50;99.90
39665;DHT22;26679;50.872;4.332;2023-08-06T11:13:54;15.60;99.90
39665;DHT22;26679;50.872;4.332;2023-08-06T11:16:20;15.70;99.90
39665;DHT22;26679;50.872;4.332;2023-08-06T11:21:21;15.80;99.90
39665;DHT22;26679;50.872;4.332;2023-08-06T11:23:47;15.80;99.90
39665;DHT22;26679;50.872;4.332;2023-08-06T11:26:12;15.90;99.90
39665;DHT22;26679;50.872;4.332;2023-08-06T11:28:38;16.00;99.90
39665;DHT22;26679;50.872;4.332;2023-08-06T11:31:03;16.00;99.90
39665;DHT22;26679;50.872;4.332;2023-08-06T11:33:29;16.10;99.90
39665;DHT22;26679;50.872;4.332;2023-08-06T11:35:57;16.00;99.90
39665;DHT22;26679;50.872;4.332;2023-08-06T11:38:29;15.70;99.90
39665;DHT22;26679;50.872;4.332;2023-08-06T11:40:55;15.40;99.90
39665;DHT22;26679;50.872;4.332;2023-08-06T11:43:21;15.10;99.90
39665;DHT22;26679;50.872;4.332;2023-08-06T11:45:48;15.00;99.90
39665;DHT22;26679;50.872;4.332;2023-08-06T11:48:14;14.90;99.90
39665;DHT22;26679;50.872;4.332;2023-08-06T11:50:39;14.90;99.90
39665;DHT22;26679;50.872;4.332;2023-08-06T11:53:05;14.90;99.90
39665;DHT22;26679;50.872;4.332;2023-08-06T11:55:31;14.80;99.90
39665;DHT22;26679;50.872;4.332;2023-08-06T11:57:57;14.90;99.90
39665;DHT22;26679;50.872;4.332;2023-08-06T12:00:23;14.80;99.90
39665;DHT22;26679;50.872;4.332;2023-08-06T12:02:55;14.80;99.90
39665;DHT22;26679;50.872;4.332;2023-08-06T12:05:23;14.80;99.90
39665;DHT22;26679;50.872;4.332;2023-08-06T12:07:52;14.80;99.90
39665;DHT22;26679;50.872;4.332;2023-08-06T12:10:18;14.80;99.90
39665;DHT22;26679;50.872;4.332;2023-08-06T12:12:47;14.90;99.90
39665;DHT22;26679;50.872;4.332;2023-08-06T12:15:13;14.90;99.90
39665;DHT22;26679;50.872;4.332;2023-08-06T12:17:39;15.10;99.90
39665;DHT22;26679;50.872;4.332;2023-08-06T12:20:05;15.10;99.90
39665;DHT22;26679;50.872;4.332;2023-08-06T12:22:31;15.20;99.90
39665;DHT22;26679;50.872;4.332;2023-08-06T12:25:00;15.40;99.90
39665;DHT22;26679;50.872;4.332;2023-08-06T12:27:26;15.50;99.90
39665;DHT22;26679;50.872;4.332;2023-08-06T12:29:51;15.60;99.90
39665;DHT22;26679;50.872;4.332;2023-08-06T12:32:17;15.80;99.90
39665;DHT22;26679;50.872;4.332;2023-08-06T12:34:42;16.10;99.90
39665;DHT22;26679;50.872;4.332;2023-08-06T12:37:08;16.20;99.90
39665;DHT22;26679;50.872;4.332;2023-08-06T12:39:34;16.10;99.90
39665;DHT22;26679;50.872;4.332;2023-08-06T12:42:00;16.00;99.90
39665;DHT22;26679;50.872;4.332;2023-08-06T12:44:26;15.70;99.90
39665;DHT22;26679;50.872;4.332;2023-08-06T12:46:52;15.40;99.90
39665;DHT22;26679;50.872;4.332;2023-08-06T12:49:18;15.40;99.90
39665;DHT22;26679;50.872;4.332;2023-08-06T12:51:49;15.50;99.90
39665;DHT22;26679;50.872;4.332;2023-08-06T12:54:18;15.60;99.90
39665;DHT22;26679;50.872;4.332;2023-08-06T12:56:44;15.60;99.90
39665;DHT22;26679;50.872;4.332;2023-08-06T12:59:10;15.70;99.90
39665;DHT22;26679;50.872;4.332;2023-08-06T13:01:37;15.90;99.90
39665;DHT22;26679;50.872;4.332;2023-08-06T13:04:03;15.80;99.90
39665;DHT22;26679;50.872;4.332;2023-08-06T13:06:28;15.90;99.90
39665;DHT22;26679;50.872;4.332;2023-08-06T13:08:54;15.90;99.90
39665;DHT22;26679;50.872;4.332;2023-08-06T13:11:20;15.70;99.90
39665;DHT22;26679;50.872;4.332;2023-08-06T13:13:46;15.80;99.90
39665;DHT22;26679;50.872;4.332;2023-08-06T13:16:11;15.70;99.90
39665;DHT22;26679;50.872;4.332;2023-08-06T13:18:37;15.50;99.90
39665;DHT22;26679;50.872;4.332;2023-08-06T13:21:02;15.50;99.90
39665;DHT22;26679;50.872;4.332;2023-08-06T13:23:28;15.40;99.90
39665;DHT22;26679;50.872;4.332;2023-08-06T13:25:53;15.30;99.90
39665;DHT22;26679;50.872;4.332;2023-08-06T13:28:19;15.20;99.90
39665;DHT22;26679;50.872;4.332;2023-08-06T13:30:45;15.10;99.90
39665;DHT22;26679;50.872;4.332;2023-08-06T13:33:11;15.10;99.90
39665;DHT22;26679;50.872;4.332;2023-08-06T13:35:37;15.10;99.90
39665;DHT22;26679;50.872;4.332;2023-08-06T13:38:03;15.50;99.90
39665;DHT22;26679;50.872;4.332;2023-08-06T13:40:29;15.10;99.90
39665;DHT22;26679;50.872;4.332;2023-08-06T13:42:55;15.00;99.90
39665;DHT22;26679;50.872;4.332;2023-08-06T13:45:24;15.00;99.90
39665;DHT22;26679;50.872;4.332;2023-08-06T13:47:49;14.90;99.90
39665;DHT22;26679;50.872;4.332;2023-08-06T13:50:15;14.70;99.90
39665;DHT22;26679;50.872;4.332;2023-08-06T13:52:40;14.70;99.90
39665;DHT22;26679;50.872;4.332;2023-08-06T13:55:06;14.70;99.90
39665;DHT22;26679;50.872;4.332;2023-08-06T13:57:32;14.80;99.90
39665;DHT22;26679;50.872;4.332;2023-08-06T13:59:58;14.80;99.90
39665;DHT22;26679;50.872;4.332;2023-08-06T14:02:23;14.80;99.90
39665;DHT22;26679;50.872;4.332;2023-08-06T14:04:49;14.90;99.90
39665;DHT22;26679;50.872;4.332;2023-08-06T14:07:14;14.90;99.90
39665;DHT22;26679;50.872;4.332;2023-08-06T14:09:40;14.90;99.90
39665;DHT22;26679;50.872;4.332;2023-08-06T14:12:08;14.90;99.90
39665;DHT22;26679;50.872;4.332;2023-08-06T14:14:34;14.80;99.90
39665;DHT22;26679;50.872;4.332;2023-08-06T14:17:18;14.80;99.90
39665;DHT22;26679;50.872;4.332;2023-08-06T14:19:44;14.70;99.90
39665;DHT22;26679;50.872;4.332;2023-08-06T14:22:31;14.70;99.90
39665;DHT22;26679;50.872;4.332;2023-08-06T14:25:02;14.80;99.90
39665;DHT22;26679;50.872;4.332;2023-08-06T14:27:27;14.90;99.90
39665;DHT22;26679;50.872;4.332;2023-08-06T14:29:53;14.90;99.90
39665;DHT22;26679;50.872;4.332;2023-08-06T14:32:19;14.80;99.90
39665;DHT22;26679;50.872;4.332;2023-08-06T14:34:46;14.90;99.90
39665;DHT22;26679;50.872;4.332;2023-08-06T14:37:12;14.80;99.90
39665;DHT22;26679;50.872;4.332;2023-08-06T14:39:38;14.80;99.90
39665;DHT22;26679;50.872;4.332;2023-08-06T14:42:04;14.80;99.90
39665;DHT22;26679;50.872;4.332;2023-08-06T14:44:30;14.70;99.90
39665;DHT22;26679;50.872;4.332;2023-08-06T14:46:56;14.70;99.90
39665;DHT22;26679;50.872;4.332;2023-08-06T14:49:21;14.70;99.90
39665;DHT22;26679;50.872;4.332;2023-08-06T14:51:47;14.80;99.90
39665;DHT22;26679;50.872;4.332;2023-08-06T14:56:47;14.90;99.90
39665;DHT22;26679;50.872;4.332;2023-08-06T14:59:12;13.70;99.90
39665;DHT22;26679;50.872;4.332;2023-08-06T15:01:40;15.00;99.90
39665;DHT22;26679;50.872;4.332;2023-08-06T15:04:06;15.20;99.90
39665;DHT22;26679;50.872;4.332;2023-08-06T15:06:33;15.20;99.90
39665;DHT22;26679;50.872;4.332;2023-08-06T15:11:35;15.40;99.90
39665;DHT22;26679;50.872;4.332;2023-08-06T15:14:01;15.60;99.90
39665;DHT22;26679;50.872;4.332;2023-08-06T15:16:29;15.70;99.90
39665;DHT22;26679;50.872;4.332;2023-08-06T15:18:54;15.90;99.90
39665;DHT22;26679;50.872;4.332;2023-08-06T15:21:20;15.90;99.90
39665;DHT22;26679;50.872;4.332;2023-08-06T15:23:45;16.00;99.90
39665;DHT22;26679;50.872;4.332;2023-08-06T15:26:11;16.00;99.90
39665;DHT22;26679;50.872;4.332;2023-08-06T15:31:09;15.70;99.90
39665;DHT22;26679;50.872;4.332;2023-08-06T15:36:06;15.60;99.90
39665;DHT22;26679;50.872;4.332;2023-08-06T15:38:31;15.90;99.90
39665;DHT22;26679;50.872;4.332;2023-08-06T15:40:57;16.40;99.90
39665;DHT22;26679;50.872;4.332;2023-08-06T15:43:23;17.10;99.90
39665;DHT22;26679;50.872;4.332;2023-08-06T15:45:48;17.60;99.90
39665;DHT22;26679;50.872;4.332;2023-08-06T15:48:14;17.70;99.90
39665;DHT22;26679;50.872;4.332;2023-08-06T15:50:39;18.20;99.90
39665;DHT22;26679;50.872;4.332;2023-08-06T15:53:06;18.60;99.90
39665;DHT22;26679;50.872;4.332;2023-08-06T15:55:32;18.80;99.90
39665;DHT22;26679;50.872;4.332;2023-08-06T16:00:34;18.70;99.90
39665;DHT22;26679;50.872;4.332;2023-08-06T16:02:59;18.20;99.90
39665;DHT22;26679;50.872;4.332;2023-08-06T16:05:29;18.00;99.90
39665;DHT22;26679;50.872;4.332;2023-08-06T16:07:56;17.90;99.90
39665;DHT22;26679;50.872;4.332;2023-08-06T16:10:21;17.90;99.90
39665;DHT22;26679;50.872;4.332;2023-08-06T16:12:47;17.80;99.90
39665;DHT22;26679;50.872;4.332;2023-08-06T16:15:12;17.80;99.90
39665;DHT22;26679;50.872;4.332;2023-08-06T16:17:44;17.90;99.90
39665;DHT22;26679;50.872;4.332;2023-08-06T16:20:10;17.80;99.90
39665;DHT22;26679;50.872;4.332;2023-08-06T16:22:35;17.90;99.90
39665;DHT22;26679;50.872;4.332;2023-08-06T16:25:01;18.40;99.90
39665;DHT22;26679;50.872;4.332;2023-08-06T16:27:27;19.50;99.90
39665;DHT22;26679;50.872;4.332;2023-08-06T16:29:52;19.50;99.90
39665;DHT22;26679;50.872;4.332;2023-08-06T16:40:04;18.50;99.90
39665;DHT22;26679;50.872;4.332;2023-08-06T16:42:31;18.20;99.90
39665;DHT22;26679;50.872;4.332;2023-08-06T16:44:57;18.10;99.90
39665;DHT22;26679;50.872;4.332;2023-08-06T16:47:23;18.70;99.90
39665;DHT22;26679;50.872;4.332;2023-08-06T16:49:48;18.90;99.90
39665;DHT22;26679;50.872;4.332;2023-08-06T16:52:14;18.40;99.90
39665;DHT22;26679;50.872;4.332;2023-08-06T16:54:40;18.10;99.90
39665;DHT22;26679;50.872;4.332;2023-08-06T16:57:05;17.90;99.90
39665;DHT22;26679;50.872;4.332;2023-08-06T16:59:31;17.70;99.90
39665;DHT22;26679;50.872;4.332;2023-08-06T17:01:56;17.60;99.90
39665;DHT22;26679;50.872;4.332;2023-08-06T17:04:22;17.50;99.90
39665;DHT22;26679;50.872;4.332;2023-08-06T17:06:48;17.50;99.90
39665;DHT22;26679;50.872;4.332;2023-08-06T17:09:13;17.50;99.90
39665;DHT22;26679;50.872;4.332;2023-08-06T17:11:39;17.90;99.90
39665;DHT22;26679;50.872;4.332;2023-08-06T17:14:04;18.90;99.90
39665;DHT22;26679;50.872;4.332;2023-08-06T17:16:30;19.60;99.90
39665;DHT22;26679;50.872;4.332;2023-08-06T17:18:56;20.20;99.90
39665;DHT22;26679;50.872;4.332;2023-08-06T17:21:22;20.50;99.90
39665;DHT22;26679;50.872;4.332;2023-08-06T17:23:48;20.50;99.90
39665;DHT22;26679;50.872;4.332;2023-08-06T17:26:14;20.50;99.90
39665;DHT22;26679;50.872;4.332;2023-08-06T17:28:41;20.50;99.90
39665;DHT22;26679;50.872;4.332;2023-08-06T17:31:06;20.70;99.90
39665;DHT22;26679;50.872;4.332;2023-08-06T17:33:33;21.20;99.90
39665;DHT22;26679;50.872;4.332;2023-08-06T17:35:58;21.20;99.90